sensor_id;sensor_type;location;lat;lon;timestamp;temperature;humidity
67194;DHT22;54121;53.508;49.422;2022-09-09T00:02:23;21.40;35.10
67194;DHT22;54121;53.508;49.422;2022-09-09T00:05:18;21.50;34.90
67194;DHT22;54121;53.508;49.422;2022-09-09T00:07:55;21.80;33.80
67194;DHT22;54121;53.508;49.422;2022-09-09T00:10:38;21.80;33.80
67194;DHT22;54121;53.508;49.422;2022-09-09T00:13:18;21.70;34.00
67194;DHT22;54121;53.508;49.422;2022-09-09T00:18:46;22.10;33.70
67194;DHT22;54121;53.508;49.422;2022-09-09T00:21:24;22.30;33.20
67194;DHT22;54121;53.508;49.422;2022-09-09T00:23:58;22.20;33.00
67194;DHT22;54121;53.508;49.422;2022-09-09T00:26:42;22.10;33.40
67194;DHT22;54121;53.508;49.422;2022-09-09T00:29:33;22.10;33.00
67194;DHT22;54121;53.508;49.422;2022-09-09T00:32:18;22.00;33.30
67194;DHT22;54121;53.508;49.422;2022-09-09T00:35:03;21.60;34.30
67194;DHT22;54121;53.508;49.422;2022-09-09T00:37:38;21.80;33.70
67194;DHT22;54121;53.508;49.422;2022-09-09T00:40:33;22.10;33.30
67194;DHT22;54121;53.508;49.422;2022-09-09T00:43:19;22.30;32.80
67194;DHT22;54121;53.508;49.422;2022-09-09T00:49:04;21.30;34.80
67194;DHT22;54121;53.508;49.422;2022-09-09T00:57:33;21.80;33.70
67194;DHT22;54121;53.508;49.422;2022-09-09T01:00:24;21.70;34.20
67194;DHT22;54121;53.508;49.422;2022-09-09T01:10:51;21.70;34.10
67194;DHT22;54121;53.508;49.422;2022-09-09T01:13:30;21.40;34.60
67194;DHT22;54121;53.508;49.422;2022-09-09T01:16:04;21.70;34.10
67194;DHT22;54121;53.508;49.422;2022-09-09T01:18:44;21.70;34.10
67194;DHT22;54121;53.508;49.422;2022-09-09T01:26:42;21.10;35.40
67194;DHT22;54121;53.508;49.422;2022-09-09T01:29:18;20.90;35.90
67194;DHT22;54121;53.508;49.422;2022-09-09T01:31:56;20.60;36.60
67194;DHT22;54121;53.508;49.422;2022-09-09T01:34:35;20.60;37.10
67194;DHT22;54121;53.508;49.422;2022-09-09T01:37:09;20.90;36.40
67194;DHT22;54121;53.508;49.422;2022-09-09T01:39:43;20.60;36.60
67194;DHT22;54121;53.508;49.422;2022-09-09T01:42:16;20.60;36.70
67194;DHT22;54121;53.508;49.422;2022-09-09T01:44:49;20.90;36.10
67194;DHT22;54121;53.508;49.422;2022-09-09T01:47:20;20.90;36.20
67194;DHT22;54121;53.508;49.422;2022-09-09T01:49:52;21.10;35.70
67194;DHT22;54121;53.508;49.422;2022-09-09T01:52:24;21.10;35.90
67194;DHT22;54121;53.508;49.422;2022-09-09T01:54:56;21.00;35.50
67194;DHT22;54121;53.508;49.422;2022-09-09T01:57:33;20.70;36.70
67194;DHT22;54121;53.508;49.422;2022-09-09T02:00:13;20.90;36.10
67194;DHT22;54121;53.508;49.422;2022-09-09T02:03:04;21.20;35.20
67194;DHT22;54121;53.508;49.422;2022-09-09T02:08:45;21.00;35.70
67194;DHT22;54121;53.508;49.422;2022-09-09T02:11:19;21.30;35.00
67194;DHT22;54121;53.508;49.422;2022-09-09T02:14:17;21.30;34.80
67194;DHT22;54121;53.508;49.422;2022-09-09T02:17:02;21.50;34.80
67194;DHT22;54121;53.508;49.422;2022-09-09T02:19:48;21.40;34.70
67194;DHT22;54121;53.508;49.422;2022-09-09T02:22:22;21.20;35.20
67194;DHT22;54121;53.508;49.422;2022-09-09T02:24:58;21.10;35.40
67194;DHT22;54121;53.508;49.422;2022-09-09T02:27:30;21.10;35.50
67194;DHT22;54121;53.508;49.422;2022-09-09T02:30:03;21.10;35.30
67194;DHT22;54121;53.508;49.422;2022-09-09T02:32:36;20.90;36.00
67194;DHT22;54121;53.508;49.422;2022-09-09T02:35:12;21.00;35.70
67194;DHT22;54121;53.508;49.422;2022-09-09T02:37:46;20.90;36.20
67194;DHT22;54121;53.508;49.422;2022-09-09T02:40:18;21.30;35.00
67194;DHT22;54121;53.508;49.422;2022-09-09T02:42:50;21.10;35.60
67194;DHT22;54121;53.508;49.422;2022-09-09T02:45:25;21.20;35.00
67194;DHT22;54121;53.508;49.422;2022-09-09T02:48:51;21.20;34.90
67194;DHT22;54121;53.508;49.422;2022-09-09T02:54:27;21.90;33.50
67194;DHT22;54121;53.508;49.422;2022-09-09T02:57:10;22.10;32.80
67194;DHT22;54121;53.508;49.422;2022-09-09T02:59:44;22.30;32.60
67194;DHT22;54121;53.508;49.422;2022-09-09T03:02:16;22.40;33.30
67194;DHT22;54121;53.508;49.422;2022-09-09T03:04:47;22.30;32.20
67194;DHT22;54121;53.508;49.422;2022-09-09T03:07:23;21.50;34.30
67194;DHT22;54121;53.508;49.422;2022-09-09T03:09:54;21.50;34.80
67194;DHT22;54121;53.508;49.422;2022-09-09T03:12:26;21.90;34.10
67194;DHT22;54121;53.508;49.422;2022-09-09T03:14:58;22.00;33.30
67194;DHT22;54121;53.508;49.422;2022-09-09T03:17:30;22.30;32.70
67194;DHT22;54121;53.508;49.422;2022-09-09T03:20:05;22.50;31.80
67194;DHT22;54121;53.508;49.422;2022-09-09T03:22:38;22.40;32.30
67194;DHT22;54121;53.508;49.422;2022-09-09T03:25:10;22.30;32.10
67194;DHT22;54121;53.508;49.422;2022-09-09T03:27:42;22.00;33.20
67194;DHT22;54121;53.508;49.422;2022-09-09T03:30:14;21.70;33.80
67194;DHT22;54121;53.508;49.422;2022-09-09T03:32:46;21.70;34.40
67194;DHT22;54121;53.508;49.422;2022-09-09T03:35:19;22.00;34.00
67194;DHT22;54121;53.508;49.422;2022-09-09T03:37:51;22.00;34.80
67194;DHT22;54121;53.508;49.422;2022-09-09T03:40:23;22.30;32.70
67194;DHT22;54121;53.508;49.422;2022-09-09T03:42:54;22.20;32.70
67194;DHT22;54121;53.508;49.422;2022-09-09T03:45:26;22.60;32.40
67194;DHT22;54121;53.508;49.422;2022-09-09T03:47:58;23.30;30.60
67194;DHT22;54121;53.508;49.422;2022-09-09T03:50:31;24.20;29.30
67194;DHT22;54121;53.508;49.422;2022-09-09T03:53:03;24.90;28.00
67194;DHT22;54121;53.508;49.422;2022-09-09T03:55:37;25.50;27.20
67194;DHT22;54121;53.508;49.422;2022-09-09T03:58:09;26.00;26.40
67194;DHT22;54121;53.508;49.422;2022-09-09T04:00:42;25.80;26.40
67194;DHT22;54121;53.508;49.422;2022-09-09T04:03:16;25.70;26.70
67194;DHT22;54121;53.508;49.422;2022-09-09T04:05:56;26.40;25.70
67194;DHT22;54121;53.508;49.422;2022-09-09T04:08:28;26.00;26.30
67194;DHT22;54121;53.508;49.422;2022-09-09T04:11:02;26.80;25.20
67194;DHT22;54121;53.508;49.422;2022-09-09T04:13:38;26.10;25.90
67194;DHT22;54121;53.508;49.422;2022-09-09T04:16:11;26.00;26.30
67194;DHT22;54121;53.508;49.422;2022-09-09T04:18:44;26.10;26.20
67194;DHT22;54121;53.508;49.422;2022-09-09T04:21:16;26.80;25.30
67194;DHT22;54121;53.508;49.422;2022-09-09T04:23:48;27.70;24.20
67194;DHT22;54121;53.508;49.422;2022-09-09T04:26:20;27.70;23.70
67194;DHT22;54121;53.508;49.422;2022-09-09T04:28:52;27.40;24.20
67194;DHT22;54121;53.508;49.422;2022-09-09T04:31:24;28.30;23.10
67194;DHT22;54121;53.508;49.422;2022-09-09T04:33:57;28.30;22.70
67194;DHT22;54121;53.508;49.422;2022-09-09T04:36:28;28.20;23.20
67194;DHT22;54121;53.508;49.422;2022-09-09T04:39:00;29.50;21.70
67194;DHT22;54121;53.508;49.422;2022-09-09T04:41:32;30.00;20.80
67194;DHT22;54121;53.508;49.422;2022-09-09T04:44:04;30.00;20.80
67194;DHT22;54121;53.508;49.422;2022-09-09T04:46:37;31.40;19.60
67194;DHT22;54121;53.508;49.422;2022-09-09T04:49:09;31.70;19.00
67194;DHT22;54121;53.508;49.422;2022-09-09T04:51:40;30.50;20.60
67194;DHT22;54121;53.508;49.422;2022-09-09T04:54:12;30.30;20.10
67194;DHT22;54121;53.508;49.422;2022-09-09T04:56:44;30.30;20.40
67194;DHT22;54121;53.508;49.422;2022-09-09T04:59:16;29.50;21.50
67194;DHT22;54121;53.508;49.422;2022-09-09T05:01:48;28.60;22.00
67194;DHT22;54121;53.508;49.422;2022-09-09T05:04:21;28.40;22.90
67194;DHT22;54121;53.508;49.422;2022-09-09T05:06:53;28.30;23.00
67194;DHT22;54121;53.508;49.422;2022-09-09T05:09:25;28.20;22.70
67194;DHT22;54121;53.508;49.422;2022-09-09T05:11:57;28.70;21.80
67194;DHT22;54121;53.508;49.422;2022-09-09T05:14:29;29.10;21.50
67194;DHT22;54121;53.508;49.422;2022-09-09T05:17:01;29.40;20.70
67194;DHT22;54121;53.508;49.422;2022-09-09T05:19:33;28.50;21.50
67194;DHT22;54121;53.508;49.422;2022-09-09T05:22:04;28.70;21.80
67194;DHT22;54121;53.508;49.422;2022-09-09T05:24:36;28.40;22.10
67194;DHT22;54121;53.508;49.422;2022-09-09T05:27:08;28.00;22.30
67194;DHT22;54121;53.508;49.422;2022-09-09T05:29:43;28.40;22.30
67194;DHT22;54121;53.508;49.422;2022-09-09T05:32:16;28.50;22.10
67194;DHT22;54121;53.508;49.422;2022-09-09T05:34:47;29.20;21.30
67194;DHT22;54121;53.508;49.422;2022-09-09T05:37:19;28.40;22.20
67194;DHT22;54121;53.508;49.422;2022-09-09T05:39:51;28.50;21.70
67194;DHT22;54121;53.508;49.422;2022-09-09T05:42:23;28.40;22.50
67194;DHT22;54121;53.508;49.422;2022-09-09T05:44:55;29.30;21.30
67194;DHT22;54121;53.508;49.422;2022-09-09T05:47:26;29.10;21.40
67194;DHT22;54121;53.508;49.422;2022-09-09T05:49:59;28.60;22.20
67194;DHT22;54121;53.508;49.422;2022-09-09T05:52:30;29.00;21.50
67194;DHT22;54121;53.508;49.422;2022-09-09T05:55:03;28.60;21.50
67194;DHT22;54121;53.508;49.422;2022-09-09T05:57:35;29.00;21.00
67194;DHT22;54121;53.508;49.422;2022-09-09T06:00:08;28.40;21.70
67194;DHT22;54121;53.508;49.422;2022-09-09T06:02:40;27.70;22.70
67194;DHT22;54121;53.508;49.422;2022-09-09T06:05:12;27.80;21.80
67194;DHT22;54121;53.508;49.422;2022-09-09T06:07:44;28.30;22.40
67194;DHT22;54121;53.508;49.422;2022-09-09T06:10:16;28.10;21.90
67194;DHT22;54121;53.508;49.422;2022-09-09T06:12:48;29.30;20.70
67194;DHT22;54121;53.508;49.422;2022-09-09T06:15:20;30.20;19.20
67194;DHT22;54121;53.508;49.422;2022-09-09T06:17:55;29.90;19.40
67194;DHT22;54121;53.508;49.422;2022-09-09T06:20:27;29.50;20.20
67194;DHT22;54121;53.508;49.422;2022-09-09T06:23:03;31.30;18.50
67194;DHT22;54121;53.508;49.422;2022-09-09T06:25:34;31.20;18.70
67194;DHT22;54121;53.508;49.422;2022-09-09T06:28:06;30.80;18.60
67194;DHT22;54121;53.508;49.422;2022-09-09T06:30:38;29.50;20.20
67194;DHT22;54121;53.508;49.422;2022-09-09T06:33:10;28.80;21.80
67194;DHT22;54121;53.508;49.422;2022-09-09T06:35:41;28.30;22.70
67194;DHT22;54121;53.508;49.422;2022-09-09T06:38:13;28.00;24.40
67194;DHT22;54121;53.508;49.422;2022-09-09T06:40:55;26.40;26.60
67194;DHT22;54121;53.508;49.422;2022-09-09T06:43:28;26.60;27.20
67194;DHT22;54121;53.508;49.422;2022-09-09T06:46:02;26.40;27.10
67194;DHT22;54121;53.508;49.422;2022-09-09T06:48:34;25.60;28.20
67194;DHT22;54121;53.508;49.422;2022-09-09T06:51:15;26.10;27.70
67194;DHT22;54121;53.508;49.422;2022-09-09T06:53:50;26.20;27.30
67194;DHT22;54121;53.508;49.422;2022-09-09T06:56:28;25.80;26.90
67194;DHT22;54121;53.508;49.422;2022-09-09T06:59:03;25.40;27.80
67194;DHT22;54121;53.508;49.422;2022-09-09T07:01:37;25.30;27.60
67194;DHT22;54121;53.508;49.422;2022-09-09T07:04:09;25.70;27.60
67194;DHT22;54121;53.508;49.422;2022-09-09T07:06:46;25.50;28.10
67194;DHT22;54121;53.508;49.422;2022-09-09T07:09:18;25.80;27.80
67194;DHT22;54121;53.508;49.422;2022-09-09T07:11:51;25.30;29.20
67194;DHT22;54121;53.508;49.422;2022-09-09T07:14:24;25.90;27.50
67194;DHT22;54121;53.508;49.422;2022-09-09T07:16:56;26.90;25.60
67194;DHT22;54121;53.508;49.422;2022-09-09T07:19:28;26.40;25.30
67194;DHT22;54121;53.508;49.422;2022-09-09T07:21:59;26.70;25.70
67194;DHT22;54121;53.508;49.422;2022-09-09T07:24:32;26.70;25.00
67194;DHT22;54121;53.508;49.422;2022-09-09T07:27:04;27.40;24.70
67194;DHT22;54121;53.508;49.422;2022-09-09T07:29:37;27.90;24.60
67194;DHT22;54121;53.508;49.422;2022-09-09T07:32:09;27.40;24.40
67194;DHT22;54121;53.508;49.422;2022-09-09T07:34:41;27.60;24.50
67194;DHT22;54121;53.508;49.422;2022-09-09T07:37:13;27.10;25.50
67194;DHT22;54121;53.508;49.422;2022-09-09T07:39:44;27.90;24.00
67194;DHT22;54121;53.508;49.422;2022-09-09T07:42:17;28.20;23.90
67194;DHT22;54121;53.508;49.422;2022-09-09T07:44:48;29.40;21.70
67194;DHT22;54121;53.508;49.422;2022-09-09T07:47:20;29.80;21.10
67194;DHT22;54121;53.508;49.422;2022-09-09T07:49:52;30.90;19.50
67194;DHT22;54121;53.508;49.422;2022-09-09T07:52:24;29.90;20.90
67194;DHT22;54121;53.508;49.422;2022-09-09T07:54:56;30.50;20.30
67194;DHT22;54121;53.508;49.422;2022-09-09T07:57:29;29.40;21.40
67194;DHT22;54121;53.508;49.422;2022-09-09T08:00:04;29.40;21.40
67194;DHT22;54121;53.508;49.422;2022-09-09T08:02:36;29.40;21.30
67194;DHT22;54121;53.508;49.422;2022-09-09T08:05:08;28.90;21.70
67194;DHT22;54121;53.508;49.422;2022-09-09T08:07:40;29.20;21.20
67194;DHT22;54121;53.508;49.422;2022-09-09T08:10:12;29.10;21.20
67194;DHT22;54121;53.508;49.422;2022-09-09T08:12:45;28.30;22.20
67194;DHT22;54121;53.508;49.422;2022-09-09T08:15:17;28.40;22.10
67194;DHT22;54121;53.508;49.422;2022-09-09T08:17:49;29.20;21.30
67194;DHT22;54121;53.508;49.422;2022-09-09T08:20:21;29.10;21.50
67194;DHT22;54121;53.508;49.422;2022-09-09T08:22:55;29.20;21.30
67194;DHT22;54121;53.508;49.422;2022-09-09T08:25:27;28.80;21.30
67194;DHT22;54121;53.508;49.422;2022-09-09T08:28:00;28.80;21.10
67194;DHT22;54121;53.508;49.422;2022-09-09T08:30:32;28.60;20.40
67194;DHT22;54121;53.508;49.422;2022-09-09T08:33:03;29.00;20.20
67194;DHT22;54121;53.508;49.422;2022-09-09T08:35:35;29.30;20.80
67194;DHT22;54121;53.508;49.422;2022-09-09T08:38:07;28.60;22.00
67194;DHT22;54121;53.508;49.422;2022-09-09T08:40:45;28.60;22.20
67194;DHT22;54121;53.508;49.422;2022-09-09T08:43:21;28.10;22.80
67194;DHT22;54121;53.508;49.422;2022-09-09T08:48:48;27.90;22.70
67194;DHT22;54121;53.508;49.422;2022-09-09T08:51:26;27.70;22.80
67194;DHT22;54121;53.508;49.422;2022-09-09T08:54:01;27.40;23.50
67194;DHT22;54121;53.508;49.422;2022-09-09T08:56:33;28.00;22.80
67194;DHT22;54121;53.508;49.422;2022-09-09T08:59:05;28.90;21.70
67194;DHT22;54121;53.508;49.422;2022-09-09T09:07:23;29.60;20.20
67194;DHT22;54121;53.508;49.422;2022-09-09T09:10:21;29.00;20.50
67194;DHT22;54121;53.508;49.422;2022-09-09T09:12:57;29.10;21.20
67194;DHT22;54121;53.508;49.422;2022-09-09T09:15:38;28.90;21.70
67194;DHT22;54121;53.508;49.422;2022-09-09T09:18:12;29.10;21.00
67194;DHT22;54121;53.508;49.422;2022-09-09T09:21:06;30.00;19.50
67194;DHT22;54121;53.508;49.422;2022-09-09T09:23:54;31.00;17.60
67194;DHT22;54121;53.508;49.422;2022-09-09T09:26:32;30.90;17.30
67194;DHT22;54121;53.508;49.422;2022-09-09T09:29:11;32.90;16.40
67194;DHT22;54121;53.508;49.422;2022-09-09T09:31:51;32.90;15.50
67194;DHT22;54121;53.508;49.422;2022-09-09T09:34:24;33.50;15.00
67194;DHT22;54121;53.508;49.422;2022-09-09T09:36:57;33.40;15.10
67194;DHT22;54121;53.508;49.422;2022-09-09T09:39:31;33.00;14.90
67194;DHT22;54121;53.508;49.422;2022-09-09T09:42:16;33.00;14.20
67194;DHT22;54121;53.508;49.422;2022-09-09T09:44:48;31.80;16.60
67194;DHT22;54121;53.508;49.422;2022-09-09T09:47:21;31.70;15.60
67194;DHT22;54121;53.508;49.422;2022-09-09T09:50:00;32.10;15.70
67194;DHT22;54121;53.508;49.422;2022-09-09T09:52:33;31.70;16.30
67194;DHT22;54121;53.508;49.422;2022-09-09T09:55:13;31.10;16.80
67194;DHT22;54121;53.508;49.422;2022-09-09T09:57:45;30.40;17.90
67194;DHT22;54121;53.508;49.422;2022-09-09T10:00:20;31.40;17.00
67194;DHT22;54121;53.508;49.422;2022-09-09T10:02:52;31.90;16.70
67194;DHT22;54121;53.508;49.422;2022-09-09T10:05:26;32.50;15.60
67194;DHT22;54121;53.508;49.422;2022-09-09T10:08:20;32.20;15.90
67194;DHT22;54121;53.508;49.422;2022-09-09T10:11:26;31.70;16.70
67194;DHT22;54121;53.508;49.422;2022-09-09T10:17:35;32.40;15.20
67194;DHT22;54121;53.508;49.422;2022-09-09T10:20:24;31.50;16.00
67194;DHT22;54121;53.508;49.422;2022-09-09T10:36:51;34.30;13.50
67194;DHT22;54121;53.508;49.422;2022-09-09T10:39:36;34.00;14.50
67194;DHT22;54121;53.508;49.422;2022-09-09T10:42:15;34.30;14.70
67194;DHT22;54121;53.508;49.422;2022-09-09T10:45:15;32.50;16.40
67194;DHT22;54121;53.508;49.422;2022-09-09T10:56:33;32.40;15.20
67194;DHT22;54121;53.508;49.422;2022-09-09T10:59:19;32.40;15.70
67194;DHT22;54121;53.508;49.422;2022-09-09T11:04:40;33.00;15.20
67194;DHT22;54121;53.508;49.422;2022-09-09T11:07:23;33.40;14.90
67194;DHT22;54121;53.508;49.422;2022-09-09T11:10:02;33.80;14.70
67194;DHT22;54121;53.508;49.422;2022-09-09T11:12:39;32.90;15.90
67194;DHT22;54121;53.508;49.422;2022-09-09T11:15:22;32.20;16.50
67194;DHT22;54121;53.508;49.422;2022-09-09T11:18:01;31.90;17.40
67194;DHT22;54121;53.508;49.422;2022-09-09T11:20:34;33.70;16.00
67194;DHT22;54121;53.508;49.422;2022-09-09T11:23:13;34.50;14.60
67194;DHT22;54121;53.508;49.422;2022-09-09T11:25:52;34.60;14.40
67194;DHT22;54121;53.508;49.422;2022-09-09T11:31:50;34.50;13.70
67194;DHT22;54121;53.508;49.422;2022-09-09T11:34:49;34.50;13.40
67194;DHT22;54121;53.508;49.422;2022-09-09T11:42:36;34.10;14.40
67194;DHT22;54121;53.508;49.422;2022-09-09T11:45:21;34.80;13.00
67194;DHT22;54121;53.508;49.422;2022-09-09T11:47:57;34.70;13.40
67194;DHT22;54121;53.508;49.422;2022-09-09T11:50:32;34.50;14.10
67194;DHT22;54121;53.508;49.422;2022-09-09T11:53:21;34.00;14.30
67194;DHT22;54121;53.508;49.422;2022-09-09T11:56:09;32.90;16.20
67194;DHT22;54121;53.508;49.422;2022-09-09T11:58:44;32.40;18.00
67194;DHT22;54121;53.508;49.422;2022-09-09T12:01:37;31.50;18.90
67194;DHT22;54121;53.508;49.422;2022-09-09T12:04:14;31.30;18.50
67194;DHT22;54121;53.508;49.422;2022-09-09T12:07:04;30.10;20.00
67194;DHT22;54121;53.508;49.422;2022-09-09T12:12:27;29.60;21.10
67194;DHT22;54121;53.508;49.422;2022-09-09T12:20:26;29.70;20.70
67194;DHT22;54121;53.508;49.422;2022-09-09T12:23:25;28.50;21.00
67194;DHT22;54121;53.508;49.422;2022-09-09T12:32:01;29.00;21.30
67194;DHT22;54121;53.508;49.422;2022-09-09T12:34:46;29.10;21.20
67194;DHT22;54121;53.508;49.422;2022-09-09T12:40:28;28.60;21.50
67194;DHT22;54121;53.508;49.422;2022-09-09T12:42:59;28.00;22.30
67194;DHT22;54121;53.508;49.422;2022-09-09T12:45:33;28.00;22.10
67194;DHT22;54121;53.508;49.422;2022-09-09T12:48:09;27.80;23.10
67194;DHT22;54121;53.508;49.422;2022-09-09T12:50:49;27.20;23.10
67194;DHT22;54121;53.508;49.422;2022-09-09T12:53:25;28.40;21.70
67194;DHT22;54121;53.508;49.422;2022-09-09T12:56:01;27.60;22.50
67194;DHT22;54121;53.508;49.422;2022-09-09T12:58:37;27.40;22.80
67194;DHT22;54121;53.508;49.422;2022-09-09T13:03:55;26.90;23.30
67194;DHT22;54121;53.508;49.422;2022-09-09T13:06:29;26.90;23.60
67194;DHT22;54121;53.508;49.422;2022-09-09T13:09:02;26.30;23.80
67194;DHT22;54121;53.508;49.422;2022-09-09T13:11:41;26.30;24.90
67194;DHT22;54121;53.508;49.422;2022-09-09T13:14:19;26.60;23.70
67194;DHT22;54121;53.508;49.422;2022-09-09T13:17:03;26.00;25.00
67194;DHT22;54121;53.508;49.422;2022-09-09T13:19:37;26.00;25.30
67194;DHT22;54121;53.508;49.422;2022-09-09T13:22:16;26.00;25.30
67194;DHT22;54121;53.508;49.422;2022-09-09T13:25:24;26.10;25.90
67194;DHT22;54121;53.508;49.422;2022-09-09T13:28:01;26.30;25.60
67194;DHT22;54121;53.508;49.422;2022-09-09T13:30:36;26.70;25.30
67194;DHT22;54121;53.508;49.422;2022-09-09T13:35:56;27.50;23.60
67194;DHT22;54121;53.508;49.422;2022-09-09T13:38:31;26.50;24.60
67194;DHT22;54121;53.508;49.422;2022-09-09T13:41:05;26.50;24.30
67194;DHT22;54121;53.508;49.422;2022-09-09T13:43:44;26.20;24.70
67194;DHT22;54121;53.508;49.422;2022-09-09T13:46:30;26.60;24.30
67194;DHT22;54121;53.508;49.422;2022-09-09T13:51:44;26.00;24.70
67194;DHT22;54121;53.508;49.422;2022-09-09T13:54:20;25.90;25.00
67194;DHT22;54121;53.508;49.422;2022-09-09T13:56:52;25.90;24.60
67194;DHT22;54121;53.508;49.422;2022-09-09T13:59:23;25.40;25.20
67194;DHT22;54121;53.508;49.422;2022-09-09T14:01:55;25.20;25.10
67194;DHT22;54121;53.508;49.422;2022-09-09T14:04:27;25.60;24.90
67194;DHT22;54121;53.508;49.422;2022-09-09T14:06:59;26.00;24.50
67194;DHT22;54121;53.508;49.422;2022-09-09T14:09:31;25.60;24.80
67194;DHT22;54121;53.508;49.422;2022-09-09T14:12:03;24.90;26.00
67194;DHT22;54121;53.508;49.422;2022-09-09T14:14:35;24.90;27.00
67194;DHT22;54121;53.508;49.422;2022-09-09T14:17:08;25.10;26.20
67194;DHT22;54121;53.508;49.422;2022-09-09T14:19:40;25.10;25.80
67194;DHT22;54121;53.508;49.422;2022-09-09T14:22:11;24.40;26.40
67194;DHT22;54121;53.508;49.422;2022-09-09T14:24:43;24.00;26.90
67194;DHT22;54121;53.508;49.422;2022-09-09T14:27:16;24.30;26.70
67194;DHT22;54121;53.508;49.422;2022-09-09T14:29:48;23.90;27.10
67194;DHT22;54121;53.508;49.422;2022-09-09T14:32:19;24.10;26.90
67194;DHT22;54121;53.508;49.422;2022-09-09T14:34:52;24.50;25.90
67194;DHT22;54121;53.508;49.422;2022-09-09T14:37:24;24.40;26.20
67194;DHT22;54121;53.508;49.422;2022-09-09T14:39:56;24.00;27.00
67194;DHT22;54121;53.508;49.422;2022-09-09T14:42:28;24.30;26.70
67194;DHT22;54121;53.508;49.422;2022-09-09T14:45:01;23.70;27.40
67194;DHT22;54121;53.508;49.422;2022-09-09T14:47:33;24.00;27.60
67194;DHT22;54121;53.508;49.422;2022-09-09T14:50:05;23.70;27.90
67194;DHT22;54121;53.508;49.422;2022-09-09T14:52:37;23.50;28.10
67194;DHT22;54121;53.508;49.422;2022-09-09T14:55:10;23.60;28.30
67194;DHT22;54121;53.508;49.422;2022-09-09T14:57:42;23.10;28.70
67194;DHT22;54121;53.508;49.422;2022-09-09T15:00:14;23.90;28.00
67194;DHT22;54121;53.508;49.422;2022-09-09T15:02:47;23.50;28.60
67194;DHT22;54121;53.508;49.422;2022-09-09T15:05:19;23.40;29.00
67194;DHT22;54121;53.508;49.422;2022-09-09T15:07:51;23.40;28.70
67194;DHT22;54121;53.508;49.422;2022-09-09T15:10:23;23.10;29.10
67194;DHT22;54121;53.508;49.422;2022-09-09T15:12:55;23.50;28.80
67194;DHT22;54121;53.508;49.422;2022-09-09T15:15:28;23.30;28.90
67194;DHT22;54121;53.508;49.422;2022-09-09T15:17:59;23.10;29.10
67194;DHT22;54121;53.508;49.422;2022-09-09T15:20:32;23.00;29.20
67194;DHT22;54121;53.508;49.422;2022-09-09T15:23:04;22.80;29.70
67194;DHT22;54121;53.508;49.422;2022-09-09T15:25:37;22.80;29.90
67194;DHT22;54121;53.508;49.422;2022-09-09T15:28:09;22.40;30.30
67194;DHT22;54121;53.508;49.422;2022-09-09T15:30:41;22.50;30.20
67194;DHT22;54121;53.508;49.422;2022-09-09T15:33:13;22.80;29.90
67194;DHT22;54121;53.508;49.422;2022-09-09T15:35:45;22.40;30.90
67194;DHT22;54121;53.508;49.422;2022-09-09T15:38:17;22.40;30.60
67194;DHT22;54121;53.508;49.422;2022-09-09T15:40:55;22.50;30.50
67194;DHT22;54121;53.508;49.422;2022-09-09T15:43:26;22.40;30.40
67194;DHT22;54121;53.508;49.422;2022-09-09T15:46:46;22.70;29.80
67194;DHT22;54121;53.508;49.422;2022-09-09T15:49:05;22.50;30.40
67194;DHT22;54121;53.508;49.422;2022-09-09T15:51:39;22.30;30.90
67194;DHT22;54121;53.508;49.422;2022-09-09T15:54:13;22.30;31.00
67194;DHT22;54121;53.508;49.422;2022-09-09T15:56:46;21.70;32.00
67194;DHT22;54121;53.508;49.422;2022-09-09T15:59:20;22.10;31.80
67194;DHT22;54121;53.508;49.422;2022-09-09T16:01:52;22.00;31.40
67194;DHT22;54121;53.508;49.422;2022-09-09T16:04:24;22.10;31.10
67194;DHT22;54121;53.508;49.422;2022-09-09T16:06:59;22.20;30.90
67194;DHT22;54121;53.508;49.422;2022-09-09T16:09:32;22.20;31.40
67194;DHT22;54121;53.508;49.422;2022-09-09T16:12:05;21.90;31.60
67194;DHT22;54121;53.508;49.422;2022-09-09T16:14:43;22.10;31.70
67194;DHT22;54121;53.508;49.422;2022-09-09T16:17:16;21.80;32.30
67194;DHT22;54121;53.508;49.422;2022-09-09T16:19:50;21.90;32.40
67194;DHT22;54121;53.508;49.422;2022-09-09T16:22:22;22.70;30.50
67194;DHT22;54121;53.508;49.422;2022-09-09T16:24:55;22.00;31.70
67194;DHT22;54121;53.508;49.422;2022-09-09T16:27:27;22.10;31.60
67194;DHT22;54121;53.508;49.422;2022-09-09T16:29:59;22.10;31.40
67194;DHT22;54121;53.508;49.422;2022-09-09T16:32:31;22.10;31.80
67194;DHT22;54121;53.508;49.422;2022-09-09T16:35:03;22.20;31.90
67194;DHT22;54121;53.508;49.422;2022-09-09T16:37:35;22.20;31.30
67194;DHT22;54121;53.508;49.422;2022-09-09T16:40:07;22.20;31.40
67194;DHT22;54121;53.508;49.422;2022-09-09T16:42:40;22.10;31.90
67194;DHT22;54121;53.508;49.422;2022-09-09T16:45:13;21.90;31.90
67194;DHT22;54121;53.508;49.422;2022-09-09T16:47:45;22.00;32.30
67194;DHT22;54121;53.508;49.422;2022-09-09T16:50:17;22.10;32.00
67194;DHT22;54121;53.508;49.422;2022-09-09T16:52:50;22.10;31.90
67194;DHT22;54121;53.508;49.422;2022-09-09T16:55:23;22.10;31.50
67194;DHT22;54121;53.508;49.422;2022-09-09T16:57:55;21.60;32.80
67194;DHT22;54121;53.508;49.422;2022-09-09T17:00:27;22.30;31.50
67194;DHT22;54121;53.508;49.422;2022-09-09T17:02:59;22.00;32.00
67194;DHT22;54121;53.508;49.422;2022-09-09T17:05:31;22.30;31.30
67194;DHT22;54121;53.508;49.422;2022-09-09T17:08:04;22.30;31.10
67194;DHT22;54121;53.508;49.422;2022-09-09T17:10:45;22.20;31.90
67194;DHT22;54121;53.508;49.422;2022-09-09T17:13:18;22.20;31.80
67194;DHT22;54121;53.508;49.422;2022-09-09T17:15:51;22.00;31.80
67194;DHT22;54121;53.508;49.422;2022-09-09T17:18:22;21.90;31.70
67194;DHT22;54121;53.508;49.422;2022-09-09T17:21:09;22.20;31.80
67194;DHT22;54121;53.508;49.422;2022-09-09T17:23:42;21.90;32.10
67194;DHT22;54121;53.508;49.422;2022-09-09T17:26:17;21.90;31.90
67194;DHT22;54121;53.508;49.422;2022-09-09T17:28:49;21.80;32.50
67194;DHT22;54121;53.508;49.422;2022-09-09T17:31:21;22.00;32.30
67194;DHT22;54121;53.508;49.422;2022-09-09T17:33:53;21.50;33.00
67194;DHT22;54121;53.508;49.422;2022-09-09T17:36:30;21.50;33.30
67194;DHT22;54121;53.508;49.422;2022-09-09T17:39:04;21.40;33.00
67194;DHT22;54121;53.508;49.422;2022-09-09T17:41:38;21.40;33.50
67194;DHT22;54121;53.508;49.422;2022-09-09T17:44:10;21.20;34.30
67194;DHT22;54121;53.508;49.422;2022-09-09T17:46:43;21.30;34.20
67194;DHT22;54121;53.508;49.422;2022-09-09T17:49:17;21.10;35.00